Time;durP1;ratioP1;P1;durP2;ratioP2;P2;SDS_P1;SDS_P2;PMS_P1;PMS_P2;Temp;Humidity;BMP_temperature;BMP_pressure;BME280_temperature;BME280_humidity;BME280_pressure;Samples;Min_cycle;Max_cycle;Signal;HPM_P1;HPM_P2
2022/10/13 00:02:09;;;;;;;12.15;6.28;;;;;;;;;;4996138;28;20034;-68
2022/10/13 00:04:35;;;;;;;15.13;6.40;;;;;;;;;;4996004;28;20027;-68
2022/10/13 00:07:00;;;;;;;12.50;6.55;;;;;;;;;;4995876;28;20026;-67
2022/10/13 00:09:26;;;;;;;19.20;7.18;;;;;;;;;;4995883;28;20429;-68
2022/10/13 00:11:51;;;;;;;17.60;7.55;;;;;;;;;;4995712;28;20061;-68
2022/10/13 00:14:16;;;;;;;16.02;6.75;;;;;;;;;;4995878;28;20027;-69
2022/10/13 00:16:42;;;;;;;12.52;6.00;;;;;;;;;;4995849;28;20443;-67
2022/10/13 00:19:07;;;;;;;13.75;6.45;;;;;;;;;;4995575;28;20050;-69
2022/10/13 00:21:33;;;;;;;12.25;6.25;;;;;;;;;;4995575;28;20026;-67
2022/10/13 00:23:58;;;;;;;11.45;5.88;;;;;;;;;;4995868;28;20049;-72
2022/10/13 00:26:25;;;;;;;15.25;6.28;;;;;;;;;;4995437;28;20026;-67
2022/10/13 00:28:50;;;;;;;15.70;5.55;;;;;;;;;;4995527;28;20041;-68
2022/10/13 00:31:20;;;;;;;11.93;5.97;;;;;;;;;;4995632;28;20321;-68
2022/10/13 00:33:46;;;;;;;11.52;5.70;;;;;;;;;;4995500;28;20031;-68
2022/10/13 00:36:12;;;;;;;14.15;6.05;;;;;;;;;;4995550;28;20475;-67
2022/10/13 00:38:37;;;;;;;13.00;5.20;;;;;;;;;;4995502;28;20034;-67
2022/10/13 00:41:03;;;;;;;12.10;5.50;;;;;;;;;;4995255;28;20066;-67
2022/10/13 00:43:50;;;;;;;13.73;5.72;;;;;;;;;;4995367;28;20034;-67
2022/10/13 00:46:16;;;;;;;12.75;5.63;;;;;;;;;;4995231;28;20037;-68
2022/10/13 00:48:43;;;;;;;18.20;5.68;;;;;;;;;;4995184;28;20026;-67
2022/10/13 00:51:11;;;;;;;14.77;5.57;;;;;;;;;;4995260;28;20022;-67
2022/10/13 00:53:38;;;;;;;13.75;5.47;;;;;;;;;;4995087;28;20113;-67
2022/10/13 00:56:07;;;;;;;13.13;5.70;;;;;;;;;;4994952;28;20109;-67
2022/10/13 00:58:35;;;;;;;14.80;6.50;;;;;;;;;;4995086;28;20028;-67
2022/10/13 01:01:03;;;;;;;14.27;6.20;;;;;;;;;;4995070;28;20329;-67
2022/10/13 01:03:28;;;;;;;10.10;5.60;;;;;;;;;;4994900;28;20114;-67
2022/10/13 01:05:58;;;;;;;10.30;5.65;;;;;;;;;;4994951;28;20456;-67
2022/10/13 01:08:25;;;;;;;11.90;5.63;;;;;;;;;;4994895;28;20490;-67
2022/10/13 01:11:21;;;;;;;15.15;6.43;;;;;;;;;;4994383;28;20033;-67
2022/10/13 01:13:55;;;;;;;10.77;6.32;;;;;;;;;;4994821;28;20113;-67
2022/10/13 01:16:48;;;;;;;12.55;5.82;;;;;;;;;;4994754;28;20027;-67
2022/10/13 01:19:24;;;;;;;15.15;6.35;;;;;;;;;;4993892;28;20042;-67
2022/10/13 01:22:00;;;;;;;14.15;5.45;;;;;;;;;;4994414;28;20030;-68
2022/10/13 01:24:46;;;;;;;15.38;5.75;;;;;;;;;;4994412;28;20060;-67
2022/10/13 01:27:23;;;;;;;12.43;5.35;;;;;;;;;;4994486;28;20380;-67
2022/10/13 01:30:07;;;;;;;20.50;5.93;;;;;;;;;;4994553;28;20031;-68
2022/10/13 01:33:02;;;;;;;14.23;5.95;;;;;;;;;;4994359;28;20105;-68
2022/10/13 01:35:52;;;;;;;14.32;5.60;;;;;;;;;;4994242;28;20034;-67
2022/10/13 01:38:34;;;;;;;11.15;6.03;;;;;;;;;;4994073;28;20054;-67
2022/10/13 01:41:16;;;;;;;14.20;6.20;;;;;;;;;;4994356;28;20361;-67
2022/10/13 01:43:59;;;;;;;11.30;5.85;;;;;;;;;;4994151;28;20372;-67
2022/10/13 01:46:34;;;;;;;13.38;5.70;;;;;;;;;;4994102;28;20029;-68
2022/10/13 01:49:04;;;;;;;9.98;5.30;;;;;;;;;;4994289;28;20380;-68
2022/10/13 01:51:32;;;;;;;13.45;6.80;;;;;;;;;;4994084;28;20116;-67
2022/10/13 01:53:57;;;;;;;18.20;6.88;;;;;;;;;;4993719;28;20484;-67
2022/10/13 01:56:23;;;;;;;18.00;6.85;;;;;;;;;;4994036;28;20041;-67
2022/10/13 01:58:50;;;;;;;19.35;7.68;;;;;;;;;;4993915;28;20387;-68
2022/10/13 02:01:22;;;;;;;13.98;6.70;;;;;;;;;;4993914;28;20034;-67
2022/10/13 02:03:59;;;;;;;14.10;7.18;;;;;;;;;;4993870;28;20497;-67
2022/10/13 02:06:38;;;;;;;16.73;6.53;;;;;;;;;;4993868;28;20026;-67
2022/10/13 02:09:34;;;;;;;12.32;6.47;;;;;;;;;;4993601;28;20106;-67
2022/10/13 02:12:06;;;;;;;11.50;6.07;;;;;;;;;;4993839;28;20057;-67
2022/10/13 02:14:33;;;;;;;14.93;6.50;;;;;;;;;;4993741;28;20037;-67
2022/10/13 02:17:03;;;;;;;14.77;6.85;;;;;;;;;;4993698;28;20034;-68
2022/10/13 02:19:32;;;;;;;19.13;6.87;;;;;;;;;;4993489;28;20050;-67
2022/10/13 02:21:58;;;;;;;17.92;6.47;;;;;;;;;;4993170;28;20030;-69
2022/10/13 02:24:24;;;;;;;12.00;6.35;;;;;;;;;;4993681;28;20464;-72
2022/10/13 02:26:50;;;;;;;12.48;5.78;;;;;;;;;;4993674;28;20118;-70
2022/10/13 02:29:17;;;;;;;14.90;6.90;;;;;;;;;;4993082;28;20026;-69
2022/10/13 02:31:44;;;;;;;15.10;6.53;;;;;;;;;;4993167;28;20034;-70
2022/10/13 02:34:11;;;;;;;12.82;6.60;;;;;;;;;;4993473;28;20039;-68
2022/10/13 02:36:37;;;;;;;17.73;7.00;;;;;;;;;;4993120;28;20049;-68
2022/10/13 02:39:04;;;;;;;13.38;6.63;;;;;;;;;;4993472;28;20033;-69
2022/10/13 02:41:30;;;;;;;16.75;7.93;;;;;;;;;;4993278;28;20558;-67
2022/10/13 02:43:55;;;;;;;13.73;6.95;;;;;;;;;;4993445;28;20118;-67
2022/10/13 02:46:21;;;;;;;13.30;6.85;;;;;;;;;;4993406;28;20384;-67
2022/10/13 02:48:46;;;;;;;16.48;6.55;;;;;;;;;;4993267;28;20035;-68
2022/10/13 02:51:12;;;;;;;15.98;6.95;;;;;;;;;;4993086;28;20109;-67
2022/10/13 02:53:37;;;;;;;22.45;7.32;;;;;;;;;;4993342;28;20026;-67
2022/10/13 02:56:03;;;;;;;15.73;6.82;;;;;;;;;;4993295;28;20476;-67
2022/10/13 02:58:28;;;;;;;14.82;6.55;;;;;;;;;;4993261;28;20025;-67
2022/10/13 03:00:54;;;;;;;15.48;7.43;;;;;;;;;;4993214;28;20026;-68
2022/10/13 03:03:19;;;;;;;15.05;7.85;;;;;;;;;;4993239;28;20084;-67
2022/10/13 03:05:45;;;;;;;19.85;9.30;;;;;;;;;;4992964;28;20034;-69
2022/10/13 03:08:10;;;;;;;13.77;7.65;;;;;;;;;;4993103;28;20647;-67
2022/10/13 03:10:36;;;;;;;17.10;7.00;;;;;;;;;;4992930;28;20023;-67
2022/10/13 03:13:01;;;;;;;16.50;7.72;;;;;;;;;;4992829;28;20026;-67
2022/10/13 03:15:27;;;;;;;14.07;7.47;;;;;;;;;;4993053;28;20022;-67
2022/10/13 03:17:52;;;;;;;17.88;7.88;;;;;;;;;;4993103;28;20026;-67
2022/10/13 03:20:18;;;;;;;13.48;7.07;;;;;;;;;;4992574;28;20484;-67
2022/10/13 03:22:43;;;;;;;15.95;7.70;;;;;;;;;;4992938;28;20114;-67
2022/10/13 03:25:09;;;;;;;12.75;6.53;;;;;;;;;;4993001;28;20506;-67
2022/10/13 03:27:34;;;;;;;18.67;7.82;;;;;;;;;;4992963;28;20026;-67
2022/10/13 03:30:00;;;;;;;13.30;7.53;;;;;;;;;;4992870;28;20030;-67
2022/10/13 03:32:28;;;;;;;12.95;6.88;;;;;;;;;;4993020;28;20030;-68
2022/10/13 03:34:54;;;;;;;16.55;6.78;;;;;;;;;;4992697;28;20030;-67
2022/10/13 03:37:19;;;;;;;17.35;7.85;;;;;;;;;;4992957;28;20591;-67
2022/10/13 03:39:44;;;;;;;12.40;6.43;;;;;;;;;;4993005;28;20595;-67
2022/10/13 03:42:10;;;;;;;19.73;7.85;;;;;;;;;;4994942;28;20027;-67
2022/10/13 03:44:35;;;;;;;19.77;7.22;;;;;;;;;;4996555;28;20054;-68
2022/10/13 03:47:01;;;;;;;14.88;6.55;;;;;;;;;;4996419;28;20027;-67
2022/10/13 03:49:26;;;;;;;12.13;6.28;;;;;;;;;;4995947;28;20030;-67
2022/10/13 03:51:52;;;;;;;18.17;6.65;;;;;;;;;;4996166;28;20023;-67
2022/10/13 03:54:17;;;;;;;13.18;7.55;;;;;;;;;;4996087;28;20046;-67
2022/10/13 03:56:43;;;;;;;14.88;7.90;;;;;;;;;;4995976;28;20353;-68
2022/10/13 03:59:10;;;;;;;15.55;7.38;;;;;;;;;;4996149;28;20033;-68
2022/10/13 04:01:36;;;;;;;15.90;6.82;;;;;;;;;;4996053;28;20443;-67
2022/10/13 04:04:02;;;;;;;15.32;7.40;;;;;;;;;;4995895;28;20050;-67
2022/10/13 04:06:28;;;;;;;14.43;6.97;;;;;;;;;;4996164;28;20389;-67
2022/10/13 04:08:54;;;;;;;16.10;7.53;;;;;;;;;;4996063;28;20491;-67
2022/10/13 04:11:20;;;;;;;14.48;7.95;;;;;;;;;;4995850;28;20130;-67
2022/10/13 04:13:46;;;;;;;17.25;8.25;;;;;;;;;;4995663;28;20035;-67
2022/10/13 04:16:22;;;;;;;17.17;8.13;;;;;;;;;;4995797;28;20475;-67
2022/10/13 04:19:02;;;;;;;16.55;7.80;;;;;;;;;;4995322;28;20387;-69
2022/10/13 04:21:29;;;;;;;16.42;8.48;;;;;;;;;;4995508;28;20097;-67
2022/10/13 04:23:56;;;;;;;16.55;8.52;;;;;;;;;;4995627;28;20484;-71
2022/10/13 04:26:24;;;;;;;14.10;8.32;;;;;;;;;;4994462;28;20108;-68
2022/10/13 04:28:51;;;;;;;17.65;8.10;;;;;;;;;;4995584;28;20022;-67
2022/10/13 04:31:17;;;;;;;14.25;8.15;;;;;;;;;;4995402;28;20019;-67
2022/10/13 04:33:44;;;;;;;16.95;8.25;;;;;;;;;;4995242;28;20046;-68
2022/10/13 04:36:12;;;;;;;23.58;9.13;;;;;;;;;;4995106;28;20105;-67
2022/10/13 04:38:38;;;;;;;17.10;8.45;;;;;;;;;;4995328;28;20057;-67
2022/10/13 04:41:05;;;;;;;22.17;8.07;;;;;;;;;;4995322;28;20058;-71
2022/10/13 04:43:31;;;;;;;15.32;8.07;;;;;;;;;;4995418;28;20030;-67
2022/10/13 04:46:07;;;;;;;16.23;7.63;;;;;;;;;;4995171;28;20066;-67
2022/10/13 04:48:32;;;;;;;18.10;7.88;;;;;;;;;;4994888;28;20109;-67
2022/10/13 04:51:10;;;;;;;18.50;7.30;;;;;;;;;;4995231;28;20110;-67
2022/10/13 04:53:36;;;;;;;16.55;8.45;;;;;;;;;;4994014;28;20472;-67
2022/10/13 04:56:04;;;;;;;17.75;8.90;;;;;;;;;;4995010;28;20065;-67
2022/10/13 04:58:30;;;;;;;18.63;8.80;;;;;;;;;;4995101;28;20031;-67
2022/10/13 05:00:55;;;;;;;18.23;8.57;;;;;;;;;;4994806;28;20034;-68
2022/10/13 05:03:22;;;;;;;19.48;9.38;;;;;;;;;;4994673;28;20026;-67
2022/10/13 05:05:47;;;;;;;17.27;9.25;;;;;;;;;;4994761;28;20080;-67
2022/10/13 05:08:13;;;;;;;22.45;9.35;;;;;;;;;;4994808;28;20126;-68
2022/10/13 05:10:38;;;;;;;21.27;10.38;;;;;;;;;;4994940;28;20387;-66
2022/10/13 05:13:04;;;;;;;21.48;10.30;;;;;;;;;;4994589;28;20022;-67
2022/10/13 05:15:30;;;;;;;26.35;12.07;;;;;;;;;;4994671;28;20039;-67
2022/10/13 05:17:55;;;;;;;28.50;11.93;;;;;;;;;;4994414;28;20417;-67
2022/10/13 05:20:20;;;;;;;23.67;9.98;;;;;;;;;;4994035;28;20039;-67
2022/10/13 05:22:46;;;;;;;20.90;10.38;;;;;;;;;;4994438;28;20027;-67
2022/10/13 05:25:11;;;;;;;23.23;12.00;;;;;;;;;;4994350;28;20105;-68
2022/10/13 05:27:37;;;;;;;30.95;12.98;;;;;;;;;;4994388;28;20030;-66
2022/10/13 05:30:03;;;;;;;37.03;18.00;;;;;;;;;;4993892;28;20384;-67
2022/10/13 05:32:28;;;;;;;39.97;17.77;;;;;;;;;;4994265;28;20028;-67
2022/10/13 05:34:53;;;;;;;33.20;14.77;;;;;;;;;;4994207;28;20038;-66
2022/10/13 05:37:21;;;;;;;36.60;14.60;;;;;;;;;;4993904;28;20114;-67
2022/10/13 05:39:47;;;;;;;39.78;15.52;;;;;;;;;;4994233;28;20387;-66
2022/10/13 05:42:12;;;;;;;50.05;15.07;;;;;;;;;;4994071;28;20109;-68
2022/10/13 05:44:38;;;;;;;35.58;14.73;;;;;;;;;;4993786;28;20102;-67
2022/10/13 05:47:03;;;;;;;35.40;13.55;;;;;;;;;;4994090;28;20420;-67
2022/10/13 05:49:29;;;;;;;33.08;13.27;;;;;;;;;;4993729;28;20445;-67
2022/10/13 05:51:58;;;;;;;44.42;14.02;;;;;;;;;;4993698;28;20030;-66
2022/10/13 05:54:34;;;;;;;21.52;10.57;;;;;;;;;;4993948;28;20451;-67
2022/10/13 05:57:02;;;;;;;25.52;10.13;;;;;;;;;;4994091;28;20034;-67
2022/10/13 05:59:31;;;;;;;31.83;11.50;;;;;;;;;;4993912;28;20375;-68
2022/10/13 06:01:57;;;;;;;18.52;8.98;;;;;;;;;;4993638;28;20019;-68
2022/10/13 06:04:29;;;;;;;21.70;9.48;;;;;;;;;;4993966;28;20033;-66
2022/10/13 06:06:54;;;;;;;17.92;8.60;;;;;;;;;;4993892;28;20026;-65
2022/10/13 06:09:20;;;;;;;21.45;8.88;;;;;;;;;;4993674;28;20392;-66
2022/10/13 06:11:45;;;;;;;20.60;10.05;;;;;;;;;;4993621;28;20030;-67
2022/10/13 06:14:11;;;;;;;21.40;9.98;;;;;;;;;;4993068;28;20387;-67
2022/10/13 06:16:36;;;;;;;17.08;8.55;;;;;;;;;;4993543;28;20029;-67
2022/10/13 06:19:03;;;;;;;16.13;8.25;;;;;;;;;;4993223;28;20073;-67
2022/10/13 06:21:29;;;;;;;16.77;9.15;;;;;;;;;;4993401;28;20022;-67
2022/10/13 06:23:54;;;;;;;19.02;8.95;;;;;;;;;;4993543;28;20399;-66
2022/10/13 06:26:20;;;;;;;19.70;9.23;;;;;;;;;;4993448;28;20026;-68
2022/10/13 06:28:45;;;;;;;19.58;9.30;;;;;;;;;;4993068;28;20050;-66
2022/10/13 06:31:11;;;;;;;20.13;7.80;;;;;;;;;;4993123;28;20103;-66
2022/10/13 06:33:36;;;;;;;20.15;9.35;;;;;;;;;;4993359;28;20039;-66
2022/10/13 06:36:05;;;;;;;17.58;9.02;;;;;;;;;;4993308;28;20037;-66
2022/10/13 06:38:32;;;;;;;18.73;8.82;;;;;;;;;;4993087;28;20034;-67
2022/10/13 06:41:02;;;;;;;22.70;8.45;;;;;;;;;;4993694;28;20058;-66
2022/10/13 06:43:27;;;;;;;15.45;7.78;;;;;;;;;;4993021;28;20085;-67
2022/10/13 06:45:56;;;;;;;16.98;7.13;;;;;;;;;;4993258;28;20030;-68
2022/10/13 06:48:21;;;;;;;19.77;7.90;;;;;;;;;;4993283;28;20062;-68
2022/10/13 06:50:47;;;;;;;30.17;8.85;;;;;;;;;;4993135;28;20070;-68
2022/10/13 06:53:12;;;;;;;20.48;8.65;;;;;;;;;;4993350;28;20031;-71
2022/10/13 06:55:38;;;;;;;17.38;7.97;;;;;;;;;;4992121;28;20031;-70
2022/10/13 06:58:04;;;;;;;28.45;9.05;;;;;;;;;;4991588;28;20030;-67
2022/10/13 07:00:29;;;;;;;15.00;8.05;;;;;;;;;;4993182;28;20388;-69
2022/10/13 07:02:55;;;;;;;30.65;9.68;;;;;;;;;;4993369;28;20057;-66
2022/10/13 07:05:20;;;;;;;16.73;7.75;;;;;;;;;;4992965;28;20484;-67
2022/10/13 07:07:46;;;;;;;21.45;8.35;;;;;;;;;;4992956;28;20054;-66
2022/10/13 07:10:11;;;;;;;18.48;8.82;;;;;;;;;;4993112;28;20023;-66
2022/10/13 07:12:37;;;;;;;18.63;8.75;;;;;;;;;;4992849;28;20523;-67
2022/10/13 07:15:02;;;;;;;15.38;8.77;;;;;;;;;;4993002;28;20538;-66
2022/10/13 07:17:28;;;;;;;17.15;8.95;;;;;;;;;;4995630;28;20393;-66
2022/10/13 07:19:53;;;;;;;18.70;8.70;;;;;;;;;;4996342;28;20492;-67
2022/10/13 07:22:19;;;;;;;18.95;9.55;;;;;;;;;;4996662;28;20322;-66
2022/10/13 07:24:44;;;;;;;15.02;8.85;;;;;;;;;;4996809;28;20034;-68
2022/10/13 07:27:10;;;;;;;17.92;9.27;;;;;;;;;;4996431;28;20034;-68
2022/10/13 07:29:35;;;;;;;16.50;8.52;;;;;;;;;;4996704;28;20089;-67
2022/10/13 07:32:01;;;;;;;18.70;8.23;;;;;;;;;;4996313;28;20022;-70
2022/10/13 07:34:26;;;;;;;20.60;8.80;;;;;;;;;;4996568;28;20039;-67
2022/10/13 07:36:51;;;;;;;18.83;9.07;;;;;;;;;;4996513;28;20035;-70
2022/10/13 07:39:17;;;;;;;22.42;9.10;;;;;;;;;;4996353;28;20019;-67
2022/10/13 07:41:42;;;;;;;17.48;8.95;;;;;;;;;;4996487;28;20025;-69
2022/10/13 07:44:08;;;;;;;20.33;8.70;;;;;;;;;;4996499;28;20085;-69
2022/10/13 07:46:33;;;;;;;17.50;8.73;;;;;;;;;;4996268;28;20114;-70
2022/10/13 07:48:59;;;;;;;18.50;8.85;;;;;;;;;;4996090;28;20027;-68
2022/10/13 07:51:24;;;;;;;22.20;9.57;;;;;;;;;;4996265;28;20019;-68
2022/10/13 07:53:51;;;;;;;17.35;8.82;;;;;;;;;;4996155;28;20376;-67
2022/10/13 07:56:16;;;;;;;16.50;8.90;;;;;;;;;;4995828;28;20034;-67
2022/10/13 07:58:44;;;;;;;23.08;8.93;;;;;;;;;;4995932;28;20035;-68
2022/10/13 08:01:11;;;;;;;15.93;8.45;;;;;;;;;;4995980;28;20038;-68
2022/10/13 08:03:36;;;;;;;17.83;8.68;;;;;;;;;;4995933;28;20035;-69
2022/10/13 08:06:04;;;;;;;18.70;9.18;;;;;;;;;;4995785;28;20076;-68
2022/10/13 08:08:30;;;;;;;19.67;8.35;;;;;;;;;;4995760;28;20027;-70
2022/10/13 08:11:04;;;;;;;19.27;9.80;;;;;;;;;;4995536;28;20077;-71
2022/10/13 08:13:29;;;;;;;16.23;9.23;;;;;;;;;;4995706;28;20424;-69
2022/10/13 08:15:59;;;;;;;18.40;8.82;;;;;;;;;;4995602;28;20109;-68
2022/10/13 08:18:24;;;;;;;15.60;8.77;;;;;;;;;;4995640;28;20106;-71
2022/10/13 08:20:50;;;;;;;14.95;8.77;;;;;;;;;;4995519;28;20129;-67
2022/10/13 08:23:15;;;;;;;21.73;9.68;;;;;;;;;;4995605;28;20029;-67
2022/10/13 08:25:42;;;;;;;19.42;9.38;;;;;;;;;;4995331;28;20376;-67
2022/10/13 08:28:18;;;;;;;20.30;9.70;;;;;;;;;;4995446;28;20026;-67
2022/10/13 08:30:44;;;;;;;29.60;10.88;;;;;;;;;;4995593;28;20034;-66
2022/10/13 08:33:09;;;;;;;20.08;9.50;;;;;;;;;;4995494;28;20038;-67
2022/10/13 08:35:34;;;;;;;16.13;9.05;;;;;;;;;;4995365;28;20023;-68
2022/10/13 08:38:00;;;;;;;17.92;9.05;;;;;;;;;;4993420;28;20045;-69
2022/10/13 08:40:25;;;;;;;22.70;8.60;;;;;;;;;;4995145;28;20030;-70
2022/10/13 08:42:51;;;;;;;22.73;9.30;;;;;;;;;;4995205;28;20031;-68
2022/10/13 08:45:30;;;;;;;17.23;8.52;;;;;;;;;;4995054;28;20033;-67
2022/10/13 08:48:04;;;;;;;20.33;9.25;;;;;;;;;;4995061;28;20037;-68
2022/10/13 08:50:34;;;;;;;22.38;9.45;;;;;;;;;;4995312;28;20026;-67
2022/10/13 08:53:04;;;;;;;15.50;7.55;;;;;;;;;;4995059;28;20038;-67
2022/10/13 08:55:41;;;;;;;17.08;9.07;;;;;;;;;;4995001;28;20046;-68
2022/10/13 08:58:16;;;;;;;19.70;8.52;;;;;;;;;;4993735;28;20039;-70
2022/10/13 09:00:42;;;;;;;21.67;8.73;;;;;;;;;;4994931;28;20054;-67
2022/10/13 09:03:28;;;;;;;17.52;8.75;;;;;;;;;;4994936;28;20447;-67
2022/10/13 09:05:54;;;;;;;17.50;8.55;;;;;;;;;;4994848;28;20030;-70
2022/10/13 09:08:20;;;;;;;15.65;8.35;;;;;;;;;;4994619;28;20044;-71
2022/10/13 09:10:49;;;;;;;17.98;8.38;;;;;;;;;;4994850;28;20026;-68
2022/10/13 09:13:15;;;;;;;18.40;8.27;;;;;;;;;;4994615;28;20388;-70
2022/10/13 09:15:46;;;;;;;15.98;8.90;;;;;;;;;;4994708;28;20022;-70
2022/10/13 09:18:13;;;;;;;16.38;9.43;;;;;;;;;;4994628;28;20026;-66
2022/10/13 09:20:39;;;;;;;23.15;9.70;;;;;;;;;;4994226;28;20137;-69
2022/10/13 09:23:19;;;;;;;18.35;8.98;;;;;;;;;;4994390;28;20030;-67
2022/10/13 09:25:48;;;;;;;;;;;;;;;;;;4994852;28;20030;-66
2022/10/13 09:28:27;;;;;;;18.83;8.68;;;;;;;;;;4994252;28;20007;-69
2022/10/13 09:31:23;;;;;;;15.48;8.38;;;;;;;;;;4994569;28;20073;-70
2022/10/13 09:34:08;;;;;;;18.38;8.95;;;;;;;;;;4994442;28;20030;-67
2022/10/13 09:36:33;;;;;;;13.18;8.30;;;;;;;;;;4994156;28;20073;-66
2022/10/13 09:39:15;;;;;;;21.58;9.07;;;;;;;;;;4993765;28;20455;-68
2022/10/13 09:41:42;;;;;;;16.58;8.00;;;;;;;;;;4994223;28;20037;-67
2022/10/13 09:44:18;;;;;;;19.05;9.40;;;;;;;;;;4994032;28;20022;-67
2022/10/13 09:46:55;;;;;;;15.70;8.07;;;;;;;;;;4994117;28;20028;-67
2022/10/13 09:49:38;;;;;;;14.52;8.32;;;;;;;;;;4993892;28;20082;-67
2022/10/13 09:52:16;;;;;;;17.75;8.60;;;;;;;;;;4993918;28;20065;-66
2022/10/13 09:54:49;;;;;;;18.23;8.82;;;;;;;;;;4994025;28;20027;-69
2022/10/13 09:57:41;;;;;;;15.50;8.13;;;;;;;;;;4994166;28;20419;-70
2022/10/13 10:00:23;;;;;;;16.42;8.35;;;;;;;;;;4994031;28;20061;-66
2022/10/13 10:02:56;;;;;;;17.02;8.30;;;;;;;;;;4994022;28;20052;-67
2022/10/13 10:05:38;;;;;;;16.70;8.15;;;;;;;;;;4993999;28;20431;-67
2022/10/13 10:08:22;;;;;;;18.75;8.40;;;;;;;;;;4993649;28;20025;-67
2022/10/13 10:10:48;;;;;;;20.30;9.20;;;;;;;;;;4993853;28;20101;-71
2022/10/13 10:13:14;;;;;;;19.40;8.32;;;;;;;;;;4993707;28;20472;-68
2022/10/13 10:15:52;;;;;;;15.82;8.20;;;;;;;;;;4993518;28;20037;-68
2022/10/13 10:18:38;;;;;;;17.08;9.23;;;;;;;;;;4993883;28;20483;-67
2022/10/13 10:21:26;;;;;;;14.80;7.47;;;;;;;;;;4992485;28;20031;-70
2022/10/13 10:23:54;;;;;;;18.02;8.77;;;;;;;;;;4992768;28;20030;-66
2022/10/13 10:26:41;;;;;;;16.40;8.25;;;;;;;;;;4992891;28;20464;-67
2022/10/13 10:29:12;;;;;;;15.88;8.75;;;;;;;;;;4992651;28;20034;-66
2022/10/13 10:31:56;;;;;;;19.52;8.25;;;;;;;;;;4992740;28;20026;-66
2022/10/13 10:34:41;;;;;;;19.50;8.60;;;;;;;;;;4992722;28;20026;-66
2022/10/13 10:37:15;;;;;;;15.10;7.68;;;;;;;;;;4992979;28;20034;-67
2022/10/13 10:40:03;;;;;;;15.40;8.32;;;;;;;;;;4992634;28;20053;-66
2022/10/13 10:42:40;;;;;;;15.57;7.88;;;;;;;;;;4992733;28;20491;-66
2022/10/13 10:45:16;;;;;;;14.45;7.72;;;;;;;;;;4992708;28;20042;-67
2022/10/13 10:47:46;;;;;;;18.83;7.68;;;;;;;;;;4992616;28;20023;-67
2022/10/13 10:50:15;;;;;;;15.20;8.75;;;;;;;;;;4992367;28;20014;-69
2022/10/13 10:53:02;;;;;;;15.02;8.32;;;;;;;;;;4995226;28;20161;-67
2022/10/13 10:55:53;;;;;;;18.55;7.68;;;;;;;;;;4996021;28;20058;-66
2022/10/13 10:58:43;;;;;;;14.63;7.82;;;;;;;;;;4994590;28;20435;-67
2022/10/13 11:01:26;;;;;;;18.77;8.43;;;;;;;;;;4995949;28;20498;-67
2022/10/13 11:04:29;;;;;;;10.88;5.88;;;;;;;;;;4995551;28;20030;-68
2022/10/13 11:06:55;;;;;;;13.82;7.57;;;;;;;;;;4995680;28;20038;-68
2022/10/13 11:09:41;;;;;;;17.35;7.72;;;;;;;;;;4995817;28;20468;-66
2022/10/13 11:12:48;;;;;;;12.98;7.22;;;;;;;;;;4995688;28;20046;-66
2022/10/13 11:15:19;;;;;;;15.68;7.65;;;;;;;;;;4995684;28;20142;-66
2022/10/13 11:17:45;;;;;;;16.23;8.77;;;;;;;;;;4995623;28;20018;-66
2022/10/13 11:20:16;;;;;;;16.90;7.53;;;;;;;;;;4938718;28;1659749;-66
2022/10/13 11:23:02;;;;;;;13.45;7.25;;;;;;;;;;4996710;28;20046;-66
2022/10/13 11:26:13;;;;;;;12.60;7.60;;;;;;;;;;4996499;28;20396;-66
2022/10/13 11:28:39;;;;;;;18.42;8.38;;;;;;;;;;4994763;28;20031;-67
2022/10/13 11:31:04;;;;;;;16.88;7.70;;;;;;;;;;4996631;28;20037;-67
2022/10/13 11:33:39;;;;;;;14.13;7.68;;;;;;;;;;4996386;28;20045;-67
2022/10/13 11:36:31;;;;;;;17.38;9.05;;;;;;;;;;4996514;28;20027;-68
2022/10/13 11:39:21;;;;;;;16.20;9.02;;;;;;;;;;4996483;28;20037;-66
2022/10/13 11:41:55;;;;;;;15.57;8.27;;;;;;;;;;4996499;28;20149;-66
2022/10/13 11:44:30;;;;;;;17.77;8.30;;;;;;;;;;4996522;28;20031;-66
2022/10/13 11:46:58;;;;;;;19.02;9.40;;;;;;;;;;4996504;28;20034;-66
2022/10/13 11:49:39;;;;;;;15.60;8.63;;;;;;;;;;4996070;28;20080;-66
2022/10/13 11:52:09;;;;;;;15.65;8.10;;;;;;;;;;4996334;28;20425;-66
2022/10/13 11:54:47;;;;;;;;;;;;;;;;;;4996523;28;20057;-66
2022/10/13 11:57:22;;;;;;;17.30;7.18;;;;;;;;;;4996265;28;19913;-69
2022/10/13 11:59:53;;;;;;;16.20;9.48;;;;;;;;;;4994818;28;20022;-66
2022/10/13 12:02:19;;;;;;;17.58;8.73;;;;;;;;;;4995539;28;20140;-67
2022/10/13 12:05:02;;;;;;;14.45;8.18;;;;;;;;;;4996221;28;20375;-66
2022/10/13 12:07:35;;;;;;;16.55;8.65;;;;;;;;;;4995780;28;20022;-66
2022/10/13 12:10:05;;;;;;;17.25;8.48;;;;;;;;;;4995853;28;20033;-69
2022/10/13 12:12:31;;;;;;;16.55;8.60;;;;;;;;;;4996016;28;20055;-66
2022/10/13 12:14:57;;;;;;;18.00;8.95;;;;;;;;;;4995698;28;20065;-67
2022/10/13 12:17:25;;;;;;;13.35;8.23;;;;;;;;;;4995565;28;20030;-66
2022/10/13 12:20:03;;;;;;;14.10;7.00;;;;;;;;;;4995329;28;20042;-67
2022/10/13 12:22:29;;;;;;;13.15;8.18;;;;;;;;;;4995908;28;20108;-66
2022/10/13 12:25:03;;;;;;;15.55;8.88;;;;;;;;;;4995728;28;20057;-66
2022/10/13 12:27:33;;;;;;;17.73;8.90;;;;;;;;;;4995472;28;20480;-68
2022/10/13 12:30:01;;;;;;;17.08;8.93;;;;;;;;;;4995582;28;20094;-66
2022/10/13 12:32:32;;;;;;;13.30;7.25;;;;;;;;;;4995460;28;20109;-72
2022/10/13 12:35:16;;;;;;;13.27;7.90;;;;;;;;;;4995447;28;20034;-66
2022/10/13 12:37:42;;;;;;;17.17;9.60;;;;;;;;;;4995530;28;20112;-65
2022/10/13 12:40:12;;;;;;;20.88;9.32;;;;;;;;;;4995205;28;20057;-66
2022/10/13 12:42:38;;;;;;;18.90;9.25;;;;;;;;;;4995362;28;20030;-69
2022/10/13 12:45:05;;;;;;;15.65;8.18;;;;;;;;;;4995135;28;20058;-67
2022/10/13 12:47:44;;;;;;;19.92;9.95;;;;;;;;;;4995137;28;20117;-68
2022/10/13 12:50:29;;;;;;;14.55;9.77;;;;;;;;;;4995284;28;20030;-67
2022/10/13 12:53:07;;;;;;;15.95;9.48;;;;;;;;;;4990856;28;20117;-65
2022/10/13 12:55:33;;;;;;;20.00;9.27;;;;;;;;;;4995202;28;20018;-67
2022/10/13 12:57:58;;;;;;;15.90;8.68;;;;;;;;;;4995005;28;20054;-67
2022/10/13 13:00:27;;;;;;;20.83;7.93;;;;;;;;;;4993624;28;20445;-69
2022/10/13 13:02:56;;;;;;;17.58;8.63;;;;;;;;;;4994700;28;20037;-70
2022/10/13 13:05:35;;;;;;;16.40;7.75;;;;;;;;;;4994668;28;20049;-67
2022/10/13 13:08:20;;;;;;;17.58;8.48;;;;;;;;;;4994772;28;20022;-67
2022/10/13 13:10:55;;;;;;;14.93;8.52;;;;;;;;;;4993572;28;20062;-67
2022/10/13 13:13:23;;;;;;;18.13;8.63;;;;;;;;;;4994358;28;20385;-71
2022/10/13 13:15:48;;;;;;;13.85;7.90;;;;;;;;;;4993835;28;20109;-69
2022/10/13 13:18:26;;;;;;;17.27;8.65;;;;;;;;;;4994494;28;20054;-68
2022/10/13 13:20:55;;;;;;;18.27;8.95;;;;;;;;;;4994341;28;20432;-72
2022/10/13 13:23:22;;;;;;;15.60;8.20;;;;;;;;;;4994570;28;20037;-71
2022/10/13 13:26:13;;;;;;;16.50;8.60;;;;;;;;;;4994412;28;20030;-72
2022/10/13 13:28:44;;;;;;;12.73;7.28;;;;;;;;;;4994132;28;20062;-68
2022/10/13 13:31:13;;;;;;;;;;;;;;;;;;4994764;28;20030;-67
2022/10/13 13:33:39;;;;;;;13.23;6.55;;;;;;;;;;4994206;28;19924;-66
2022/10/13 13:36:13;;;;;;;12.85;7.07;;;;;;;;;;4994389;28;20113;-67
2022/10/13 13:38:39;;;;;;;14.32;6.97;;;;;;;;;;4994213;28;20033;-70
2022/10/13 13:41:04;;;;;;;17.45;7.82;;;;;;;;;;4994296;28;20030;-72
2022/10/13 13:43:30;;;;;;;14.88;7.50;;;;;;;;;;4993855;28;20396;-72
2022/10/13 13:45:55;;;;;;;16.02;7.88;;;;;;;;;;4993975;28;20058;-71
2022/10/13 13:48:21;;;;;;;16.35;7.30;;;;;;;;;;4994106;28;20422;-67
2022/10/13 13:50:46;;;;;;;16.88;7.78;;;;;;;;;;4994134;28;20443;-68
2022/10/13 13:53:12;;;;;;;14.75;7.22;;;;;;;;;;4993975;28;20101;-69
2022/10/13 13:55:37;;;;;;;20.33;7.65;;;;;;;;;;4994085;28;20053;-67
2022/10/13 13:58:03;;;;;;;20.77;6.88;;;;;;;;;;4993688;28;20018;-72
2022/10/13 14:00:28;;;;;;;13.38;7.70;;;;;;;;;;4994035;28;20102;-70
2022/10/13 14:02:57;;;;;;;19.27;7.20;;;;;;;;;;4993891;28;20028;-71
2022/10/13 14:05:23;;;;;;;14.52;7.70;;;;;;;;;;4993647;28;20090;-71
2022/10/13 14:07:52;;;;;;;17.00;7.28;;;;;;;;;;4993762;28;20026;-68
2022/10/13 14:10:17;;;;;;;31.42;9.55;;;;;;;;;;4993712;28;20484;-72
2022/10/13 14:12:43;;;;;;;17.83;8.23;;;;;;;;;;4993522;28;20117;-68
2022/10/13 14:15:09;;;;;;;20.25;7.63;;;;;;;;;;4992229;28;20045;-68
2022/10/13 14:17:34;;;;;;;16.20;7.13;;;;;;;;;;4993573;28;20022;-69
2022/10/13 14:20:00;;;;;;;16.83;7.75;;;;;;;;;;4993324;28;20142;-67
2022/10/13 14:22:25;;;;;;;17.92;7.65;;;;;;;;;;4993618;28;20442;-67
2022/10/13 14:24:50;;;;;;;18.23;7.57;;;;;;;;;;4993619;28;20022;-70
2022/10/13 14:27:16;;;;;;;19.30;7.97;;;;;;;;;;4993422;28;20037;-67
2022/10/13 14:29:41;;;;;;;20.80;9.68;;;;;;;;;;4993427;28;20072;-69
2022/10/13 14:32:07;;;;;;;19.33;8.30;;;;;;;;;;4993337;28;20037;-71
2022/10/13 14:34:32;;;;;;;14.93;7.85;;;;;;;;;;4993281;28;20066;-67
2022/10/13 14:36:58;;;;;;;17.33;8.20;;;;;;;;;;4993252;28;20045;-70
2022/10/13 14:39:24;;;;;;;18.55;7.90;;;;;;;;;;4993152;28;20109;-67
2022/10/13 14:41:49;;;;;;;19.95;8.68;;;;;;;;;;4993172;28;20034;-68
2022/10/13 14:44:15;;;;;;;23.73;8.95;;;;;;;;;;4993236;28;20030;-69
2022/10/13 14:46:40;;;;;;;19.25;8.15;;;;;;;;;;4993252;28;20113;-72
2022/10/13 14:49:06;;;;;;;15.77;8.23;;;;;;;;;;4993383;28;20070;-73